sensor_id;sensor_type;location;lat;lon;timestamp;P1;durP1;ratioP1;P2;durP2;ratioP2
16954;SDS011;8594;52.052;8.354;2024-03-08T00:00:08;34.60;;;17.13;;
16954;SDS011;8594;52.052;8.354;2024-03-08T00:02:37;40.97;;;18.80;;
16954;SDS011;8594;52.052;8.354;2024-03-08T00:05:06;32.63;;;17.27;;
16954;SDS011;8594;52.052;8.354;2024-03-08T00:07:34;35.87;;;18.33;;
16954;SDS011;8594;52.052;8.354;2024-03-08T00:10:01;36.57;;;17.70;;
16954;SDS011;8594;52.052;8.354;2024-03-08T00:12:28;36.67;;;18.77;;
16954;SDS011;8594;52.052;8.354;2024-03-08T00:14:55;37.57;;;18.07;;
16954;SDS011;8594;52.052;8.354;2024-03-08T00:17:22;37.10;;;18.87;;
16954;SDS011;8594;52.052;8.354;2024-03-08T00:19:49;34.50;;;17.50;;
16954;SDS011;8594;52.052;8.354;2024-03-08T00:22:17;33.67;;;17.80;;
16954;SDS011;8594;52.052;8.354;2024-03-08T00:24:44;41.27;;;19.13;;
16954;SDS011;8594;52.052;8.354;2024-03-08T00:27:11;33.30;;;17.37;;
16954;SDS011;8594;52.052;8.354;2024-03-08T00:29:37;34.83;;;18.37;;
16954;SDS011;8594;52.052;8.354;2024-03-08T00:32:05;34.97;;;18.23;;
16954;SDS011;8594;52.052;8.354;2024-03-08T00:34:34;40.13;;;19.60;;
16954;SDS011;8594;52.052;8.354;2024-03-08T00:37:02;38.20;;;18.70;;
16954;SDS011;8594;52.052;8.354;2024-03-08T00:39:31;41.03;;;19.73;;
16954;SDS011;8594;52.052;8.354;2024-03-08T00:41:57;39.90;;;20.03;;
16954;SDS011;8594;52.052;8.354;2024-03-08T00:44:24;36.13;;;18.87;;
16954;SDS011;8594;52.052;8.354;2024-03-08T00:46:51;39.37;;;19.90;;
16954;SDS011;8594;52.052;8.354;2024-03-08T00:49:18;42.90;;;20.17;;
16954;SDS011;8594;52.052;8.354;2024-03-08T00:51:44;38.13;;;18.80;;
16954;SDS011;8594;52.052;8.354;2024-03-08T00:54:11;37.23;;;19.87;;
16954;SDS011;8594;52.052;8.354;2024-03-08T00:56:39;44.27;;;20.00;;
16954;SDS011;8594;52.052;8.354;2024-03-08T00:59:06;39.83;;;20.57;;
16954;SDS011;8594;52.052;8.354;2024-03-08T01:01:33;41.27;;;21.40;;
16954;SDS011;8594;52.052;8.354;2024-03-08T01:04:00;39.60;;;20.87;;
16954;SDS011;8594;52.052;8.354;2024-03-08T01:06:26;39.80;;;20.43;;
16954;SDS011;8594;52.052;8.354;2024-03-08T01:08:53;45.47;;;20.53;;
16954;SDS011;8594;52.052;8.354;2024-03-08T01:11:20;42.20;;;22.83;;
16954;SDS011;8594;52.052;8.354;2024-03-08T01:13:48;41.77;;;20.93;;
16954;SDS011;8594;52.052;8.354;2024-03-08T01:16:15;37.00;;;20.27;;
16954;SDS011;8594;52.052;8.354;2024-03-08T01:18:42;40.70;;;21.07;;
16954;SDS011;8594;52.052;8.354;2024-03-08T01:21:09;43.23;;;21.50;;
16954;SDS011;8594;52.052;8.354;2024-03-08T01:23:36;37.43;;;19.00;;
16954;SDS011;8594;52.052;8.354;2024-03-08T01:26:03;42.30;;;20.60;;
16954;SDS011;8594;52.052;8.354;2024-03-08T01:28:30;45.97;;;22.80;;
16954;SDS011;8594;52.052;8.354;2024-03-08T01:31:00;40.40;;;21.70;;
16954;SDS011;8594;52.052;8.354;2024-03-08T01:33:29;43.40;;;21.27;;
16954;SDS011;8594;52.052;8.354;2024-03-08T01:35:56;43.40;;;21.20;;
16954;SDS011;8594;52.052;8.354;2024-03-08T01:38:24;41.83;;;21.03;;
16954;SDS011;8594;52.052;8.354;2024-03-08T01:40:50;43.03;;;21.67;;
16954;SDS011;8594;52.052;8.354;2024-03-08T01:43:18;43.50;;;22.67;;
16954;SDS011;8594;52.052;8.354;2024-03-08T01:45:45;44.23;;;20.80;;
16954;SDS011;8594;52.052;8.354;2024-03-08T01:48:14;44.37;;;21.30;;
16954;SDS011;8594;52.052;8.354;2024-03-08T01:50:42;43.90;;;22.13;;
16954;SDS011;8594;52.052;8.354;2024-03-08T01:53:10;45.97;;;19.97;;
16954;SDS011;8594;52.052;8.354;2024-03-08T01:55:37;48.37;;;23.23;;
16954;SDS011;8594;52.052;8.354;2024-03-08T01:58:05;43.90;;;21.23;;
16954;SDS011;8594;52.052;8.354;2024-03-08T02:00:32;41.30;;;22.03;;
16954;SDS011;8594;52.052;8.354;2024-03-08T02:03:01;42.13;;;21.57;;
16954;SDS011;8594;52.052;8.354;2024-03-08T02:05:30;43.17;;;21.50;;
16954;SDS011;8594;52.052;8.354;2024-03-08T02:07:57;42.23;;;21.03;;
16954;SDS011;8594;52.052;8.354;2024-03-08T02:10:24;44.30;;;22.30;;
16954;SDS011;8594;52.052;8.354;2024-03-08T02:12:51;42.33;;;21.27;;
16954;SDS011;8594;52.052;8.354;2024-03-08T02:15:18;43.20;;;23.57;;
16954;SDS011;8594;52.052;8.354;2024-03-08T02:17:46;44.80;;;22.67;;
16954;SDS011;8594;52.052;8.354;2024-03-08T02:20:14;45.23;;;22.63;;
16954;SDS011;8594;52.052;8.354;2024-03-08T02:22:42;48.40;;;21.80;;
16954;SDS011;8594;52.052;8.354;2024-03-08T02:25:09;46.43;;;21.60;;
16954;SDS011;8594;52.052;8.354;2024-03-08T02:27:37;46.67;;;23.07;;
16954;SDS011;8594;52.052;8.354;2024-03-08T02:30:04;52.57;;;22.07;;
16954;SDS011;8594;52.052;8.354;2024-03-08T02:32:32;46.73;;;22.53;;
16954;SDS011;8594;52.052;8.354;2024-03-08T02:34:59;40.80;;;21.90;;
16954;SDS011;8594;52.052;8.354;2024-03-08T02:37:25;48.40;;;24.27;;
16954;SDS011;8594;52.052;8.354;2024-03-08T02:39:54;43.83;;;21.87;;
16954;SDS011;8594;52.052;8.354;2024-03-08T02:42:21;41.60;;;22.70;;
16954;SDS011;8594;52.052;8.354;2024-03-08T02:44:48;48.80;;;24.87;;
16954;SDS011;8594;52.052;8.354;2024-03-08T02:47:15;43.97;;;23.70;;
16954;SDS011;8594;52.052;8.354;2024-03-08T02:49:42;44.67;;;21.70;;
16954;SDS011;8594;52.052;8.354;2024-03-08T02:52:09;46.27;;;22.83;;
16954;SDS011;8594;52.052;8.354;2024-03-08T02:54:36;43.30;;;22.70;;
16954;SDS011;8594;52.052;8.354;2024-03-08T02:57:04;51.37;;;23.57;;
16954;SDS011;8594;52.052;8.354;2024-03-08T02:59:32;53.23;;;23.40;;
16954;SDS011;8594;52.052;8.354;2024-03-08T03:01:59;43.77;;;22.30;;
16954;SDS011;8594;52.052;8.354;2024-03-08T03:04:26;43.70;;;22.87;;
16954;SDS011;8594;52.052;8.354;2024-03-08T03:06:52;46.30;;;22.33;;
16954;SDS011;8594;52.052;8.354;2024-03-08T03:09:19;48.20;;;23.27;;
16954;SDS011;8594;52.052;8.354;2024-03-08T03:11:52;47.47;;;21.77;;
16954;SDS011;8594;52.052;8.354;2024-03-08T03:14:20;51.27;;;23.17;;
16954;SDS011;8594;52.052;8.354;2024-03-08T03:16:47;48.70;;;22.27;;
16954;SDS011;8594;52.052;8.354;2024-03-08T03:19:15;43.43;;;22.47;;
16954;SDS011;8594;52.052;8.354;2024-03-08T03:21:41;51.57;;;21.97;;
16954;SDS011;8594;52.052;8.354;2024-03-08T03:24:09;46.10;;;23.47;;
16954;SDS011;8594;52.052;8.354;2024-03-08T03:26:36;47.37;;;21.83;;
16954;SDS011;8594;52.052;8.354;2024-03-08T03:29:04;42.40;;;20.43;;
16954;SDS011;8594;52.052;8.354;2024-03-08T03:31:34;44.63;;;22.00;;
16954;SDS011;8594;52.052;8.354;2024-03-08T03:34:01;44.07;;;22.67;;
16954;SDS011;8594;52.052;8.354;2024-03-08T03:36:28;47.83;;;23.73;;
16954;SDS011;8594;52.052;8.354;2024-03-08T03:38:55;43.20;;;21.80;;
16954;SDS011;8594;52.052;8.354;2024-03-08T03:41:30;47.30;;;21.63;;
16954;SDS011;8594;52.052;8.354;2024-03-08T03:43:57;44.53;;;21.27;;
16954;SDS011;8594;52.052;8.354;2024-03-08T03:46:24;47.37;;;22.67;;
16954;SDS011;8594;52.052;8.354;2024-03-08T03:48:53;45.27;;;21.73;;
16954;SDS011;8594;52.052;8.354;2024-03-08T03:51:20;49.90;;;23.10;;
16954;SDS011;8594;52.052;8.354;2024-03-08T03:53:47;44.77;;;22.50;;
16954;SDS011;8594;52.052;8.354;2024-03-08T03:56:14;53.63;;;23.27;;
16954;SDS011;8594;52.052;8.354;2024-03-08T03:58:40;42.07;;;23.30;;
16954;SDS011;8594;52.052;8.354;2024-03-08T04:01:07;46.13;;;22.77;;
16954;SDS011;8594;52.052;8.354;2024-03-08T04:03:34;44.77;;;21.30;;
16954;SDS011;8594;52.052;8.354;2024-03-08T04:06:03;45.33;;;23.00;;
16954;SDS011;8594;52.052;8.354;2024-03-08T04:08:30;49.37;;;23.07;;
16954;SDS011;8594;52.052;8.354;2024-03-08T04:10:59;43.53;;;22.47;;
16954;SDS011;8594;52.052;8.354;2024-03-08T04:13:26;45.23;;;22.17;;
16954;SDS011;8594;52.052;8.354;2024-03-08T04:15:53;48.77;;;24.17;;
16954;SDS011;8594;52.052;8.354;2024-03-08T04:18:19;43.83;;;23.17;;
16954;SDS011;8594;52.052;8.354;2024-03-08T04:20:46;44.10;;;21.43;;
16954;SDS011;8594;52.052;8.354;2024-03-08T04:23:14;49.60;;;24.00;;
16954;SDS011;8594;52.052;8.354;2024-03-08T04:25:42;46.80;;;25.00;;
16954;SDS011;8594;52.052;8.354;2024-03-08T04:28:09;52.17;;;24.10;;
16954;SDS011;8594;52.052;8.354;2024-03-08T04:30:36;50.20;;;23.67;;
16954;SDS011;8594;52.052;8.354;2024-03-08T04:33:04;45.13;;;23.93;;
16954;SDS011;8594;52.052;8.354;2024-03-08T04:35:31;48.97;;;21.90;;
16954;SDS011;8594;52.052;8.354;2024-03-08T04:37:58;46.73;;;23.60;;
16954;SDS011;8594;52.052;8.354;2024-03-08T04:40:26;48.53;;;23.00;;
16954;SDS011;8594;52.052;8.354;2024-03-08T04:42:53;43.30;;;22.90;;
16954;SDS011;8594;52.052;8.354;2024-03-08T04:45:20;44.90;;;21.50;;
16954;SDS011;8594;52.052;8.354;2024-03-08T04:47:47;48.87;;;23.20;;
16954;SDS011;8594;52.052;8.354;2024-03-08T04:50:14;50.10;;;22.67;;
16954;SDS011;8594;52.052;8.354;2024-03-08T04:52:41;51.37;;;24.70;;
16954;SDS011;8594;52.052;8.354;2024-03-08T04:55:07;47.60;;;22.20;;
16954;SDS011;8594;52.052;8.354;2024-03-08T04:57:36;53.07;;;25.30;;
16954;SDS011;8594;52.052;8.354;2024-03-08T05:00:03;45.17;;;25.83;;
16954;SDS011;8594;52.052;8.354;2024-03-08T05:02:36;42.90;;;19.87;;
16954;SDS011;8594;52.052;8.354;2024-03-08T05:05:04;50.03;;;25.00;;
16954;SDS011;8594;52.052;8.354;2024-03-08T05:07:32;49.50;;;23.87;;
16954;SDS011;8594;52.052;8.354;2024-03-08T05:09:58;45.90;;;24.20;;
16954;SDS011;8594;52.052;8.354;2024-03-08T05:12:25;52.73;;;23.40;;
16954;SDS011;8594;52.052;8.354;2024-03-08T05:14:53;44.33;;;23.77;;
16954;SDS011;8594;52.052;8.354;2024-03-08T05:17:20;49.50;;;26.90;;
16954;SDS011;8594;52.052;8.354;2024-03-08T05:19:49;51.70;;;24.83;;
16954;SDS011;8594;52.052;8.354;2024-03-08T05:22:15;53.60;;;26.37;;
16954;SDS011;8594;52.052;8.354;2024-03-08T05:24:43;45.97;;;24.30;;
16954;SDS011;8594;52.052;8.354;2024-03-08T05:27:10;51.20;;;23.93;;
16954;SDS011;8594;52.052;8.354;2024-03-08T05:29:38;51.37;;;24.77;;
16954;SDS011;8594;52.052;8.354;2024-03-08T05:32:06;54.97;;;23.93;;
16954;SDS011;8594;52.052;8.354;2024-03-08T05:34:33;47.63;;;22.80;;
16954;SDS011;8594;52.052;8.354;2024-03-08T05:36:59;50.53;;;24.50;;
16954;SDS011;8594;52.052;8.354;2024-03-08T05:39:26;56.90;;;26.50;;
16954;SDS011;8594;52.052;8.354;2024-03-08T05:41:54;52.87;;;26.37;;
16954;SDS011;8594;52.052;8.354;2024-03-08T05:44:21;50.77;;;26.27;;
16954;SDS011;8594;52.052;8.354;2024-03-08T05:46:48;57.80;;;25.73;;
16954;SDS011;8594;52.052;8.354;2024-03-08T05:49:17;54.60;;;27.33;;
16954;SDS011;8594;52.052;8.354;2024-03-08T05:51:43;54.97;;;27.00;;
16954;SDS011;8594;52.052;8.354;2024-03-08T05:54:12;46.80;;;22.73;;
16954;SDS011;8594;52.052;8.354;2024-03-08T05:56:39;57.00;;;26.17;;
16954;SDS011;8594;52.052;8.354;2024-03-08T05:59:07;51.60;;;24.87;;
16954;SDS011;8594;52.052;8.354;2024-03-08T06:01:34;50.70;;;24.13;;
16954;SDS011;8594;52.052;8.354;2024-03-08T06:04:01;50.87;;;24.17;;
16954;SDS011;8594;52.052;8.354;2024-03-08T06:06:30;47.90;;;24.30;;
16954;SDS011;8594;52.052;8.354;2024-03-08T06:08:57;58.30;;;26.00;;
16954;SDS011;8594;52.052;8.354;2024-03-08T06:11:24;51.43;;;24.40;;
16954;SDS011;8594;52.052;8.354;2024-03-08T06:13:53;45.87;;;22.40;;
16954;SDS011;8594;52.052;8.354;2024-03-08T06:16:24;50.07;;;25.33;;
16954;SDS011;8594;52.052;8.354;2024-03-08T06:18:54;61.17;;;26.47;;
16954;SDS011;8594;52.052;8.354;2024-03-08T06:21:22;56.03;;;25.77;;
16954;SDS011;8594;52.052;8.354;2024-03-08T06:23:52;54.60;;;26.57;;
16954;SDS011;8594;52.052;8.354;2024-03-08T06:26:20;50.43;;;22.67;;
16954;SDS011;8594;52.052;8.354;2024-03-08T06:28:47;50.17;;;22.90;;
16954;SDS011;8594;52.052;8.354;2024-03-08T06:31:14;58.73;;;25.07;;
16954;SDS011;8594;52.052;8.354;2024-03-08T06:33:41;54.67;;;24.67;;
16954;SDS011;8594;52.052;8.354;2024-03-08T06:36:08;49.90;;;23.10;;
16954;SDS011;8594;52.052;8.354;2024-03-08T06:38:36;52.00;;;23.60;;
16954;SDS011;8594;52.052;8.354;2024-03-08T06:41:08;50.97;;;22.30;;
16954;SDS011;8594;52.052;8.354;2024-03-08T06:43:40;49.90;;;24.77;;
16954;SDS011;8594;52.052;8.354;2024-03-08T06:46:07;53.30;;;25.73;;
16954;SDS011;8594;52.052;8.354;2024-03-08T06:48:34;51.00;;;22.13;;
16954;SDS011;8594;52.052;8.354;2024-03-08T06:51:02;58.40;;;24.20;;
16954;SDS011;8594;52.052;8.354;2024-03-08T06:53:30;51.53;;;25.40;;
16954;SDS011;8594;52.052;8.354;2024-03-08T06:55:57;51.50;;;23.80;;
16954;SDS011;8594;52.052;8.354;2024-03-08T06:58:25;50.50;;;23.80;;
16954;SDS011;8594;52.052;8.354;2024-03-08T07:00:52;48.40;;;23.47;;
16954;SDS011;8594;52.052;8.354;2024-03-08T07:03:23;47.87;;;23.00;;
16954;SDS011;8594;52.052;8.354;2024-03-08T07:05:51;54.80;;;25.80;;
16954;SDS011;8594;52.052;8.354;2024-03-08T07:08:18;55.70;;;26.00;;
16954;SDS011;8594;52.052;8.354;2024-03-08T07:10:47;55.00;;;25.03;;
16954;SDS011;8594;52.052;8.354;2024-03-08T07:13:14;50.17;;;25.67;;
16954;SDS011;8594;52.052;8.354;2024-03-08T07:15:43;51.37;;;25.13;;
16954;SDS011;8594;52.052;8.354;2024-03-08T07:18:10;48.07;;;23.70;;
16954;SDS011;8594;52.052;8.354;2024-03-08T07:20:39;53.97;;;25.73;;
16954;SDS011;8594;52.052;8.354;2024-03-08T07:23:07;48.93;;;23.77;;
16954;SDS011;8594;52.052;8.354;2024-03-08T07:25:35;48.67;;;24.63;;
16954;SDS011;8594;52.052;8.354;2024-03-08T07:28:04;51.03;;;24.27;;
16954;SDS011;8594;52.052;8.354;2024-03-08T07:30:32;60.27;;;27.43;;
16954;SDS011;8594;52.052;8.354;2024-03-08T07:33:18;56.03;;;26.63;;
16954;SDS011;8594;52.052;8.354;2024-03-08T07:35:44;53.83;;;25.47;;
16954;SDS011;8594;52.052;8.354;2024-03-08T07:38:12;57.83;;;25.37;;
16954;SDS011;8594;52.052;8.354;2024-03-08T07:40:40;60.77;;;26.50;;
16954;SDS011;8594;52.052;8.354;2024-03-08T07:43:09;52.07;;;23.33;;
16954;SDS011;8594;52.052;8.354;2024-03-08T07:45:36;48.43;;;25.40;;
16954;SDS011;8594;52.052;8.354;2024-03-08T07:48:04;46.70;;;24.47;;
16954;SDS011;8594;52.052;8.354;2024-03-08T07:50:35;51.87;;;24.17;;
16954;SDS011;8594;52.052;8.354;2024-03-08T07:53:02;50.83;;;25.27;;
16954;SDS011;8594;52.052;8.354;2024-03-08T07:55:31;49.83;;;25.00;;
16954;SDS011;8594;52.052;8.354;2024-03-08T07:57:58;46.23;;;23.97;;
16954;SDS011;8594;52.052;8.354;2024-03-08T08:00:24;47.47;;;24.57;;
16954;SDS011;8594;52.052;8.354;2024-03-08T08:02:52;50.10;;;25.50;;
16954;SDS011;8594;52.052;8.354;2024-03-08T08:05:19;45.87;;;24.27;;
16954;SDS011;8594;52.052;8.354;2024-03-08T08:07:47;46.87;;;25.43;;
16954;SDS011;8594;52.052;8.354;2024-03-08T08:10:15;46.30;;;23.23;;
16954;SDS011;8594;52.052;8.354;2024-03-08T08:12:43;47.47;;;22.77;;
16954;SDS011;8594;52.052;8.354;2024-03-08T08:15:11;46.47;;;23.63;;
16954;SDS011;8594;52.052;8.354;2024-03-08T08:17:39;48.67;;;25.00;;
16954;SDS011;8594;52.052;8.354;2024-03-08T08:20:07;46.70;;;21.90;;
16954;SDS011;8594;52.052;8.354;2024-03-08T08:22:36;46.13;;;23.60;;
16954;SDS011;8594;52.052;8.354;2024-03-08T08:25:06;44.00;;;21.80;;
16954;SDS011;8594;52.052;8.354;2024-03-08T08:27:33;43.93;;;23.77;;
16954;SDS011;8594;52.052;8.354;2024-03-08T08:30:01;46.27;;;23.00;;
16954;SDS011;8594;52.052;8.354;2024-03-08T08:32:33;46.07;;;25.00;;
16954;SDS011;8594;52.052;8.354;2024-03-08T08:35:00;46.03;;;24.67;;
16954;SDS011;8594;52.052;8.354;2024-03-08T08:37:27;47.00;;;24.27;;
16954;SDS011;8594;52.052;8.354;2024-03-08T08:39:54;46.40;;;24.83;;
16954;SDS011;8594;52.052;8.354;2024-03-08T08:42:22;47.23;;;24.27;;
16954;SDS011;8594;52.052;8.354;2024-03-08T08:44:49;48.97;;;25.10;;
16954;SDS011;8594;52.052;8.354;2024-03-08T08:47:17;49.07;;;26.33;;
16954;SDS011;8594;52.052;8.354;2024-03-08T08:49:44;50.77;;;26.73;;
16954;SDS011;8594;52.052;8.354;2024-03-08T08:52:11;52.30;;;25.57;;
16954;SDS011;8594;52.052;8.354;2024-03-08T08:54:40;44.20;;;22.77;;
16954;SDS011;8594;52.052;8.354;2024-03-08T08:57:07;52.73;;;23.57;;
16954;SDS011;8594;52.052;8.354;2024-03-08T08:59:35;48.37;;;23.73;;
16954;SDS011;8594;52.052;8.354;2024-03-08T09:02:04;48.33;;;24.03;;
16954;SDS011;8594;52.052;8.354;2024-03-08T09:04:31;48.80;;;24.10;;
16954;SDS011;8594;52.052;8.354;2024-03-08T09:06:58;42.77;;;23.60;;
16954;SDS011;8594;52.052;8.354;2024-03-08T09:09:26;50.07;;;24.20;;
16954;SDS011;8594;52.052;8.354;2024-03-08T09:11:54;42.87;;;24.67;;
16954;SDS011;8594;52.052;8.354;2024-03-08T09:14:21;46.37;;;24.47;;
16954;SDS011;8594;52.052;8.354;2024-03-08T09:16:49;46.97;;;24.87;;
16954;SDS011;8594;52.052;8.354;2024-03-08T09:19:16;49.13;;;23.43;;
16954;SDS011;8594;52.052;8.354;2024-03-08T09:21:44;48.50;;;25.90;;
16954;SDS011;8594;52.052;8.354;2024-03-08T09:24:11;44.77;;;22.77;;
16954;SDS011;8594;52.052;8.354;2024-03-08T09:26:38;45.40;;;24.87;;
16954;SDS011;8594;52.052;8.354;2024-03-08T09:29:07;41.40;;;22.93;;
16954;SDS011;8594;52.052;8.354;2024-03-08T09:31:35;46.27;;;23.83;;
16954;SDS011;8594;52.052;8.354;2024-03-08T09:34:04;42.80;;;22.13;;
16954;SDS011;8594;52.052;8.354;2024-03-08T09:36:33;48.87;;;24.30;;
16954;SDS011;8594;52.052;8.354;2024-03-08T09:39:00;54.63;;;24.47;;
16954;SDS011;8594;52.052;8.354;2024-03-08T09:41:27;47.73;;;25.03;;
16954;SDS011;8594;52.052;8.354;2024-03-08T09:43:56;47.57;;;23.43;;
16954;SDS011;8594;52.052;8.354;2024-03-08T09:46:24;45.97;;;22.47;;
16954;SDS011;8594;52.052;8.354;2024-03-08T09:48:51;46.40;;;23.77;;
16954;SDS011;8594;52.052;8.354;2024-03-08T09:51:20;45.73;;;23.07;;
16954;SDS011;8594;52.052;8.354;2024-03-08T09:53:53;38.37;;;21.90;;
16954;SDS011;8594;52.052;8.354;2024-03-08T09:56:20;44.03;;;23.07;;
16954;SDS011;8594;52.052;8.354;2024-03-08T09:58:48;44.50;;;22.13;;
16954;SDS011;8594;52.052;8.354;2024-03-08T10:01:39;40.60;;;21.00;;
16954;SDS011;8594;52.052;8.354;2024-03-08T10:04:06;42.00;;;22.33;;
16954;SDS011;8594;52.052;8.354;2024-03-08T10:06:36;46.53;;;24.47;;
16954;SDS011;8594;52.052;8.354;2024-03-08T10:09:03;45.30;;;23.27;;
16954;SDS011;8594;52.052;8.354;2024-03-08T10:11:31;43.47;;;22.37;;
16954;SDS011;8594;52.052;8.354;2024-03-08T10:13:57;39.97;;;22.97;;
16954;SDS011;8594;52.052;8.354;2024-03-08T10:16:26;40.87;;;22.17;;
16954;SDS011;8594;52.052;8.354;2024-03-08T10:18:53;41.57;;;20.73;;
16954;SDS011;8594;52.052;8.354;2024-03-08T10:21:22;37.97;;;20.70;;
16954;SDS011;8594;52.052;8.354;2024-03-08T10:23:51;41.00;;;21.93;;
16954;SDS011;8594;52.052;8.354;2024-03-08T10:26:18;43.87;;;20.53;;
16954;SDS011;8594;52.052;8.354;2024-03-08T10:28:47;36.40;;;20.33;;
16954;SDS011;8594;52.052;8.354;2024-03-08T10:31:15;41.03;;;22.37;;
16954;SDS011;8594;52.052;8.354;2024-03-08T10:33:42;41.13;;;22.03;;
16954;SDS011;8594;52.052;8.354;2024-03-08T10:36:10;37.20;;;21.03;;
16954;SDS011;8594;52.052;8.354;2024-03-08T10:38:40;38.03;;;22.27;;
16954;SDS011;8594;52.052;8.354;2024-03-08T10:41:09;37.83;;;21.47;;
16954;SDS011;8594;52.052;8.354;2024-03-08T10:43:41;40.63;;;20.90;;
16954;SDS011;8594;52.052;8.354;2024-03-08T10:46:35;37.63;;;20.93;;
16954;SDS011;8594;52.052;8.354;2024-03-08T10:49:21;38.63;;;21.90;;
16954;SDS011;8594;52.052;8.354;2024-03-08T10:51:59;35.73;;;21.50;;
16954;SDS011;8594;52.052;8.354;2024-03-08T10:54:30;34.17;;;18.53;;
16954;SDS011;8594;52.052;8.354;2024-03-08T10:57:01;35.03;;;20.70;;
16954;SDS011;8594;52.052;8.354;2024-03-08T10:59:33;37.70;;;20.83;;
16954;SDS011;8594;52.052;8.354;2024-03-08T11:02:01;36.00;;;20.60;;
16954;SDS011;8594;52.052;8.354;2024-03-08T11:04:30;34.03;;;19.07;;
16954;SDS011;8594;52.052;8.354;2024-03-08T11:07:00;38.37;;;20.33;;
16954;SDS011;8594;52.052;8.354;2024-03-08T11:09:31;39.63;;;20.63;;
16954;SDS011;8594;52.052;8.354;2024-03-08T11:12:21;32.07;;;19.13;;
16954;SDS011;8594;52.052;8.354;2024-03-08T11:14:55;33.43;;;19.90;;
16954;SDS011;8594;52.052;8.354;2024-03-08T11:17:26;34.83;;;19.40;;
16954;SDS011;8594;52.052;8.354;2024-03-08T11:20:11;36.27;;;19.80;;
16954;SDS011;8594;52.052;8.354;2024-03-08T11:22:47;36.33;;;19.30;;
16954;SDS011;8594;52.052;8.354;2024-03-08T11:25:33;33.53;;;19.30;;
16954;SDS011;8594;52.052;8.354;2024-03-08T11:28:07;33.77;;;19.87;;
16954;SDS011;8594;52.052;8.354;2024-03-08T11:30:41;37.50;;;20.50;;
16954;SDS011;8594;52.052;8.354;2024-03-08T11:33:13;37.13;;;19.83;;
16954;SDS011;8594;52.052;8.354;2024-03-08T11:35:41;33.07;;;18.97;;
16954;SDS011;8594;52.052;8.354;2024-03-08T11:38:10;34.93;;;19.77;;
16954;SDS011;8594;52.052;8.354;2024-03-08T11:40:39;34.67;;;19.73;;
16954;SDS011;8594;52.052;8.354;2024-03-08T11:43:08;32.93;;;19.10;;
16954;SDS011;8594;52.052;8.354;2024-03-08T11:45:35;32.60;;;18.73;;
16954;SDS011;8594;52.052;8.354;2024-03-08T11:48:03;43.37;;;20.50;;
16954;SDS011;8594;52.052;8.354;2024-03-08T11:50:30;40.23;;;21.77;;
16954;SDS011;8594;52.052;8.354;2024-03-08T11:53:02;36.07;;;20.10;;
16954;SDS011;8594;52.052;8.354;2024-03-08T11:55:30;35.60;;;20.50;;
16954;SDS011;8594;52.052;8.354;2024-03-08T11:58:01;35.30;;;20.17;;
16954;SDS011;8594;52.052;8.354;2024-03-08T12:00:30;38.70;;;18.80;;
16954;SDS011;8594;52.052;8.354;2024-03-08T12:03:03;34.50;;;19.50;;
16954;SDS011;8594;52.052;8.354;2024-03-08T12:05:32;34.60;;;18.73;;
16954;SDS011;8594;52.052;8.354;2024-03-08T12:07:59;40.83;;;20.17;;
16954;SDS011;8594;52.052;8.354;2024-03-08T12:10:27;37.30;;;20.67;;
16954;SDS011;8594;52.052;8.354;2024-03-08T12:12:56;40.63;;;19.63;;
16954;SDS011;8594;52.052;8.354;2024-03-08T12:15:27;34.93;;;20.37;;
16954;SDS011;8594;52.052;8.354;2024-03-08T12:18:01;41.17;;;22.17;;
16954;SDS011;8594;52.052;8.354;2024-03-08T12:20:32;39.07;;;22.03;;
16954;SDS011;8594;52.052;8.354;2024-03-08T12:22:58;37.83;;;21.10;;
16954;SDS011;8594;52.052;8.354;2024-03-08T12:25:26;38.40;;;20.87;;
16954;SDS011;8594;52.052;8.354;2024-03-08T12:27:56;35.27;;;20.60;;
16954;SDS011;8594;52.052;8.354;2024-03-08T12:30:35;38.87;;;20.77;;
16954;SDS011;8594;52.052;8.354;2024-03-08T12:33:14;36.23;;;19.53;;
16954;SDS011;8594;52.052;8.354;2024-03-08T12:35:41;34.63;;;20.27;;
16954;SDS011;8594;52.052;8.354;2024-03-08T12:38:19;31.93;;;19.03;;
16954;SDS011;8594;52.052;8.354;2024-03-08T12:40:49;31.77;;;17.63;;
16954;SDS011;8594;52.052;8.354;2024-03-08T12:43:21;32.97;;;18.97;;
16954;SDS011;8594;52.052;8.354;2024-03-08T12:45:48;35.20;;;17.10;;
16954;SDS011;8594;52.052;8.354;2024-03-08T12:48:16;31.70;;;18.83;;
16954;SDS011;8594;52.052;8.354;2024-03-08T12:50:45;32.53;;;18.13;;
16954;SDS011;8594;52.052;8.354;2024-03-08T12:53:12;31.13;;;17.20;;
16954;SDS011;8594;52.052;8.354;2024-03-08T12:55:39;31.63;;;17.83;;
16954;SDS011;8594;52.052;8.354;2024-03-08T12:58:06;30.40;;;16.77;;
16954;SDS011;8594;52.052;8.354;2024-03-08T13:00:33;30.50;;;16.90;;
16954;SDS011;8594;52.052;8.354;2024-03-08T13:03:01;28.47;;;15.97;;
16954;SDS011;8594;52.052;8.354;2024-03-08T13:05:29;29.63;;;17.13;;
16954;SDS011;8594;52.052;8.354;2024-03-08T13:07:56;30.00;;;15.40;;
16954;SDS011;8594;52.052;8.354;2024-03-08T13:10:23;26.70;;;15.70;;
16954;SDS011;8594;52.052;8.354;2024-03-08T13:12:50;27.27;;;16.57;;
16954;SDS011;8594;52.052;8.354;2024-03-08T13:15:18;27.97;;;16.17;;
16954;SDS011;8594;52.052;8.354;2024-03-08T13:17:45;31.47;;;16.27;;
16954;SDS011;8594;52.052;8.354;2024-03-08T13:20:13;31.07;;;17.53;;
16954;SDS011;8594;52.052;8.354;2024-03-08T13:22:45;31.63;;;16.33;;
16954;SDS011;8594;52.052;8.354;2024-03-08T13:25:12;28.13;;;16.10;;
16954;SDS011;8594;52.052;8.354;2024-03-08T13:27:39;28.67;;;16.27;;
16954;SDS011;8594;52.052;8.354;2024-03-08T13:30:07;31.47;;;16.67;;
16954;SDS011;8594;52.052;8.354;2024-03-08T13:32:38;34.80;;;15.83;;
16954;SDS011;8594;52.052;8.354;2024-03-08T13:35:08;32.03;;;17.83;;
16954;SDS011;8594;52.052;8.354;2024-03-08T13:37:37;32.80;;;18.10;;
16954;SDS011;8594;52.052;8.354;2024-03-08T13:40:07;36.53;;;20.03;;
16954;SDS011;8594;52.052;8.354;2024-03-08T13:42:38;35.33;;;21.33;;
16954;SDS011;8594;52.052;8.354;2024-03-08T13:45:05;35.37;;;18.17;;
16954;SDS011;8594;52.052;8.354;2024-03-08T13:47:36;35.50;;;21.20;;
16954;SDS011;8594;52.052;8.354;2024-03-08T13:50:04;36.87;;;19.30;;
16954;SDS011;8594;52.052;8.354;2024-03-08T13:52:36;36.33;;;18.50;;
16954;SDS011;8594;52.052;8.354;2024-03-08T13:55:03;37.90;;;19.47;;
16954;SDS011;8594;52.052;8.354;2024-03-08T13:57:32;33.30;;;17.83;;
16954;SDS011;8594;52.052;8.354;2024-03-08T13:59:59;36.07;;;19.17;;
16954;SDS011;8594;52.052;8.354;2024-03-08T14:02:26;39.13;;;20.07;;
16954;SDS011;8594;52.052;8.354;2024-03-08T14:04:55;38.03;;;18.63;;
16954;SDS011;8594;52.052;8.354;2024-03-08T14:07:26;36.87;;;19.83;;
16954;SDS011;8594;52.052;8.354;2024-03-08T14:09:54;40.73;;;19.97;;
16954;SDS011;8594;52.052;8.354;2024-03-08T14:12:21;35.87;;;20.33;;
16954;SDS011;8594;52.052;8.354;2024-03-08T14:14:50;40.90;;;20.67;;
16954;SDS011;8594;52.052;8.354;2024-03-08T14:17:17;38.20;;;19.37;;
16954;SDS011;8594;52.052;8.354;2024-03-08T14:19:43;39.20;;;19.97;;
16954;SDS011;8594;52.052;8.354;2024-03-08T14:22:10;37.47;;;19.33;;
16954;SDS011;8594;52.052;8.354;2024-03-08T14:24:39;40.67;;;20.20;;
16954;SDS011;8594;52.052;8.354;2024-03-08T14:27:07;42.03;;;20.60;;
16954;SDS011;8594;52.052;8.354;2024-03-08T14:29:34;35.67;;;20.90;;
16954;SDS011;8594;52.052;8.354;2024-03-08T14:32:02;31.70;;;17.93;;
16954;SDS011;8594;52.052;8.354;2024-03-08T14:34:31;33.90;;;18.77;;
16954;SDS011;8594;52.052;8.354;2024-03-08T14:36:59;36.73;;;18.63;;
16954;SDS011;8594;52.052;8.354;2024-03-08T14:39:29;37.23;;;20.10;;